createdAt,value
2019-03-27T00:00:18.018Z,5.67
2019-03-27T00:01:18.048Z,5.70
2019-03-27T00:02:18.010Z,5.71
2019-03-27T00:03:17.998Z,5.68
2019-03-27T00:04:18.013Z,5.75
2019-03-27T00:05:26.725Z,5.83
2019-03-27T00:07:23.064Z,5.93
2019-03-27T00:08:22.659Z,5.91
2019-03-27T00:09:22.629Z,5.89
2019-03-27T00:10:22.659Z,5.83
2019-03-27T00:11:22.629Z,5.81
2019-03-27T00:12:22.640Z,5.70
2019-03-27T00:13:22.600Z,5.78
2019-03-27T00:14:22.585Z,5.71
2019-03-27T00:15:22.594Z,5.82
2019-03-27T00:16:22.611Z,5.83
2019-03-27T00:17:22.556Z,5.68
2019-03-27T00:18:22.570Z,5.77
2019-03-27T00:19:22.570Z,5.71
2019-03-27T00:20:22.530Z,5.70
2019-03-27T00:21:22.573Z,5.70
2019-03-27T00:22:22.510Z,5.75
2019-03-27T00:23:22.560Z,5.71
2019-03-27T00:24:22.487Z,5.74
2019-03-27T00:25:22.513Z,5.81
2019-03-27T00:26:22.496Z,5.68
2019-03-27T00:27:22.496Z,5.75
2019-03-27T00:28:22.480Z,5.78
2019-03-27T00:29:22.439Z,5.83
2019-03-27T00:30:22.434Z,5.82
2019-03-27T00:31:22.454Z,5.82
2019-03-27T00:32:22.428Z,5.71
2019-03-27T00:33:22.382Z,5.74
2019-03-27T00:34:22.414Z,5.71
2019-03-27T00:35:22.366Z,5.83
2019-03-27T00:36:22.368Z,5.85
2019-03-27T00:37:22.365Z,5.77
2019-03-27T00:38:22.425Z,5.89
2019-03-27T00:39:22.331Z,5.86
2019-03-27T00:40:30.401Z,5.88
2019-03-27T00:42:28.054Z,5.89
2019-03-27T00:43:27.834Z,5.93
2019-03-27T00:45:33.504Z,5.96
2019-03-27T00:46:33.324Z,5.89
2019-03-27T00:47:33.301Z,5.91
2019-03-27T00:48:33.286Z,5.88
2019-03-27T00:49:33.283Z,5.92
2019-03-27T00:50:33.293Z,5.88
2019-03-27T00:51:33.472Z,5.95
2019-03-27T00:52:33.246Z,5.93
2019-03-27T00:53:33.271Z,5.93
2019-03-27T00:54:33.216Z,5.85
2019-03-27T00:55:42.247Z,5.83
2019-03-27T00:57:38.770Z,5.89
2019-03-27T00:58:47.637Z,5.81
2019-03-27T01:00:52.555Z,5.71
2019-03-27T01:01:43.200Z,5.73
2019-03-27T01:02:52.099Z,5.64
2019-03-27T01:04:48.779Z,5.83
2019-03-27T01:05:57.495Z,5.88
2019-03-27T01:08:02.806Z,5.82
2019-03-27T01:09:01.997Z,5.83
2019-03-27T01:11:05.574Z,5.88
2019-03-27T01:12:05.593Z,5.77
2019-03-27T01:14:02.391Z,5.89
2019-03-27T01:15:11.157Z,5.95
2019-03-27T01:17:06.572Z,5.93
2019-03-27T01:18:15.467Z,6.00
2019-03-27T01:20:12.322Z,6.00
2019-03-27T01:21:12.325Z,6.00
2019-03-27T01:22:12.261Z,6.00
2019-03-27T01:23:12.273Z,5.96
2019-03-27T01:24:12.263Z,5.96
2019-03-27T01:25:12.246Z,6.01
2019-03-27T01:26:12.397Z,5.93
2019-03-27T01:27:12.338Z,5.93
2019-03-27T01:28:12.212Z,5.92
2019-03-27T01:29:12.198Z,5.95
2019-03-27T01:30:12.190Z,5.98
2019-03-27T01:31:21.985Z,6.01
2019-03-27T01:33:25.767Z,6.01
2019-03-27T01:34:25.402Z,5.89
2019-03-27T01:36:17.841Z,6.01
2019-03-27T01:38:50.628Z,5.95
2019-03-27T01:39:50.266Z,6.06
2019-03-27T01:40:50.314Z,6.03
2019-03-27T01:41:50.229Z,6.06
2019-03-27T01:42:50.255Z,6.07
2019-03-27T01:43:50.237Z,6.09
2019-03-27T01:44:50.207Z,6.03
2019-03-27T01:45:53.343Z,5.88
2019-03-27T01:46:50.204Z,5.96
2019-03-27T01:47:50.228Z,5.92
2019-03-27T01:48:50.196Z,5.91
2019-03-27T01:49:50.201Z,5.91
2019-03-27T01:50:50.144Z,5.92
2019-03-27T01:51:50.139Z,5.85
2019-03-27T01:52:50.135Z,5.95
2019-03-27T01:53:50.134Z,5.92
2019-03-27T01:54:50.136Z,5.86
2019-03-27T01:55:50.148Z,5.83
2019-03-27T01:56:50.134Z,5.81
2019-03-27T01:57:50.146Z,5.85
2019-03-27T01:58:50.123Z,5.95
2019-03-27T01:59:50.062Z,5.98
2019-03-27T02:00:50.067Z,5.93
2019-03-27T02:01:50.086Z,5.93
2019-03-27T02:02:50.082Z,5.89
2019-03-27T02:03:50.036Z,5.91
2019-03-27T02:04:50.016Z,5.92
2019-03-27T02:05:50.019Z,5.96
2019-03-27T02:06:50.030Z,5.89
2019-03-27T02:07:50.030Z,5.96
2019-03-27T02:08:50.021Z,5.95
2019-03-27T02:09:49.964Z,5.96
2019-03-27T02:10:49.960Z,5.91
2019-03-27T02:11:50.002Z,5.93
2019-03-27T02:12:49.948Z,5.83
2019-03-27T02:13:49.960Z,5.96
2019-03-27T02:14:49.970Z,5.89
2019-03-27T02:15:49.956Z,5.91
2019-03-27T02:16:50.007Z,5.91
2019-03-27T02:17:49.895Z,5.83
2019-03-27T02:18:49.901Z,5.78
2019-03-27T02:19:49.901Z,5.78
2019-03-27T02:20:49.899Z,5.81
2019-03-27T02:21:49.913Z,5.83
2019-03-27T02:22:49.843Z,5.95
2019-03-27T02:23:49.920Z,5.95
2019-03-27T02:24:49.824Z,5.93
2019-03-27T02:25:49.830Z,5.96
2019-03-27T02:26:49.880Z,5.96
2019-03-27T02:27:49.823Z,5.92
2019-03-27T02:28:49.786Z,5.83
2019-03-27T02:29:49.781Z,5.92
2019-03-27T02:30:49.802Z,5.89
2019-03-27T02:31:49.801Z,5.89
2019-03-27T02:32:49.759Z,5.96
2019-03-27T02:33:49.792Z,5.81
2019-03-27T02:34:49.726Z,5.85
2019-03-27T02:35:49.721Z,5.81
2019-03-27T02:36:49.739Z,5.70
2019-03-27T02:37:49.735Z,5.68
2019-03-27T02:38:49.706Z,5.75
2019-03-27T02:39:49.722Z,5.78
2019-03-27T02:40:49.745Z,5.81
2019-03-27T02:41:49.657Z,5.67
2019-03-27T02:42:49.703Z,5.68
2019-03-27T02:43:49.685Z,5.63
2019-03-27T02:44:49.696Z,5.63
2019-03-27T02:45:49.655Z,5.59
2019-03-27T02:46:49.610Z,5.64
2019-03-27T02:47:49.699Z,5.59
2019-03-27T02:48:49.664Z,5.64
2019-03-27T02:49:49.592Z,5.60
2019-03-27T02:50:49.601Z,5.64
2019-03-27T02:51:58.543Z,5.63
2019-03-27T02:53:55.072Z,5.57
2019-03-27T02:54:55.074Z,5.53
2019-03-27T02:55:55.121Z,5.49
2019-03-27T02:56:55.156Z,5.49
2019-03-27T03:14:08.428Z,5.52
2019-03-27T03:15:08.379Z,5.45
2019-03-27T03:16:08.390Z,5.46
2019-03-27T03:17:08.348Z,5.49
2019-03-27T03:18:08.338Z,5.48
2019-03-27T03:19:08.351Z,5.48
2019-03-27T03:20:08.328Z,5.43
2019-03-27T03:21:08.333Z,5.46
2019-03-27T03:22:08.330Z,5.38
2019-03-27T03:23:08.276Z,5.53
2019-03-27T03:24:08.290Z,5.57
2019-03-27T03:25:08.392Z,5.43
2019-03-27T03:26:08.268Z,5.48
2019-03-27T03:27:08.266Z,5.50
2019-03-27T03:28:08.273Z,5.41
2019-03-27T03:29:16.375Z,5.41
2019-03-27T03:31:15.069Z,5.49
2019-03-27T03:32:13.875Z,5.56
2019-03-27T03:33:13.843Z,5.49
2019-03-27T03:34:14.157Z,5.52
2019-03-27T03:35:13.889Z,5.56
2019-03-27T03:36:13.693Z,5.64
2019-03-27T03:37:13.767Z,5.56
2019-03-27T03:38:13.674Z,5.63
2019-03-27T03:39:22.915Z,5.60
2019-03-27T03:41:27.353Z,5.66
2019-03-27T03:42:19.228Z,5.53
2019-03-27T03:44:24.071Z,5.63
2019-03-27T03:45:24.030Z,5.64
2019-03-27T03:46:23.701Z,5.53
2019-03-27T03:47:31.748Z,5.56
2019-03-27T03:49:39.893Z,5.59
2019-03-27T03:50:39.859Z,5.60
2019-03-27T03:52:34.772Z,5.59
2019-03-27T03:53:34.062Z,5.63
2019-03-27T03:54:34.125Z,5.56
2019-03-27T03:55:34.070Z,5.53
2019-03-27T03:56:34.292Z,5.56
2019-03-27T03:57:33.970Z,5.56
2019-03-27T03:58:33.925Z,5.59
2019-03-27T03:59:33.966Z,5.56
2019-03-27T04:00:33.923Z,5.56
2019-03-27T04:01:33.918Z,5.56
2019-03-27T04:02:33.942Z,5.60
2019-03-27T04:03:33.856Z,5.56
2019-03-27T04:04:33.934Z,5.64
2019-03-27T04:05:33.842Z,5.71
2019-03-27T04:06:33.855Z,5.59
2019-03-27T04:07:33.866Z,5.60
2019-03-27T04:08:34.049Z,5.57
2019-03-27T04:09:33.833Z,5.56
2019-03-27T04:10:33.844Z,5.52
2019-03-27T04:11:33.980Z,5.60
2019-03-27T04:12:33.807Z,5.59
2019-03-27T04:13:33.786Z,5.55
2019-03-27T04:14:33.901Z,5.66
2019-03-27T04:15:33.774Z,5.55
2019-03-27T04:16:33.793Z,5.59
2019-03-27T04:17:43.279Z,5.59
2019-03-27T04:19:38.768Z,5.56
2019-03-27T04:20:38.358Z,5.56
2019-03-27T04:21:39.714Z,5.59
2019-03-27T04:22:38.674Z,5.55
